YPPHYPJT

Guest
Details From YPPH - Perth Intl
To YPJT - Jandakot
Flight Number -
Tags Routegen Generated
Created
Modified
Stats Distance 22 nm / 41 km
Max Altitude 100 ft / 30 m
Waypoints 5
Social Downloads 0
Likes 0
Share VATSIM

Download

Looking for another format? Having issues loading an existing format? Contact us
Advertisement - Login to hide

Notes

Departing runway 1 YPPH. Arriving runway 5 YPJT.

Route

YPPH -31.86_+115.99 -31.93_+116.01 -32.01_+116.02 YPJT

ID Type Via Altitude Latitude Longitude Leg Dist Tot Dist Heading (true) Name
O YPPH APT - 0 ft / 0 m -31.92859˚ 115.96846˚ - 0 nm - -
-31.86_+115.99 DME - 100 ft / 30 m -31.85834˚ 115.98891˚ 4 nm 4 nm 14° / 14° -
-31.93_+116.01 DME - 100 ft / 30 m -31.93356˚ 116.00654˚ 4 nm 8 nm 169° / 169° -
-32.01_+116.02 DME - 100 ft / 30 m -32.00878˚ 116.02418˚ 4 nm 13 nm 169° / 169° -
O YPJT APT - 0 ft / 0 m -32.09328˚ 115.88555˚ 8 nm 22 nm 234° / 234° -

Altitude Profile

Advertisement - Login to hide

YPPH

Details ICAO YPPH (PER)
Name Perth
Region Australia
Timezone Australia/Perth (UTC+8.0)
Stats Elevation 70 ft / 21 m (AMSL)
Location -31.939673° 115.966614°
Runways 2
Magnetic Variation 1.670° W

METAR

YPPH 142000Z 22008KT CAVOK 17/12 Q1012 NOSIG

Decode

TAF

TAF YPPH 141704Z 1418/1524 16010KT CAVOK FM142300 09012KT CAVOK FM150300 21014KT CAVOK FM150600 22017KT CAVOK FM151100 20014KT CAVOK FM151500 15007KT CAVOK

Decode

Departure Runways

ID Width Length Bearing (true) Bearing (mag) Surface Threshold Offset Overrun Length
03 151 ft / 46 m 11,390 ft / 3,472 m 13.89° 15.56° Asphalt 0 ft / 0 m 0 ft / 0 m
06 151 ft / 46 m 7,096 ft / 2,163 m 58.78° 60.45° Asphalt 0 ft / 0 m 0 ft / 0 m
21 151 ft / 46 m 11,390 ft / 3,472 m 193.88° 195.55° Asphalt 0 ft / 0 m 0 ft / 0 m
24 151 ft / 46 m 7,096 ft / 2,163 m 238.77° 240.44° Asphalt 0 ft / 0 m 0 ft / 0 m

YPJT

Details ICAO YPJT (JAD)
Name Jandakot
Region Australia
Timezone Australia/Perth (UTC+8.0)
Stats Elevation 99 ft / 30 m (AMSL)
Location -32.098877° 115.879564°
Runways 3
Magnetic Variation 1.771° W

METAR

YPJT 142000Z AUTO 19007KT 9999 // NCD 16/12 Q1012 RF00.0/000.0

Decode

TAF

TAF YPJT 141638Z 1418/1512 16010KT CAVOK FM142300 10010KT CAVOK FM150300 21014KT CAVOK FM150600 22017KT CAVOK FM151100 20014KT CAVOK

Decode

Destination Runways

ID Width Length Bearing (true) Bearing (mag) Surface Threshold Offset Overrun Length
06L 98 ft / 30 m 4,566 ft / 1,392 m 54.30° 56.07° Asphalt 387 ft / 118 m 0 ft / 0 m
06R 62 ft / 19 m 3,767 ft / 1,148 m 54.37° 56.14° Asphalt 0 ft / 0 m 0 ft / 0 m
12 98 ft / 30 m 3,242 ft / 988 m 114.50° 116.27° Asphalt 0 ft / 0 m 0 ft / 0 m
24L 62 ft / 19 m 3,767 ft / 1,148 m 234.37° 236.14° Asphalt 0 ft / 0 m 0 ft / 0 m
24R 98 ft / 30 m 4,566 ft / 1,392 m 234.30° 236.07° Asphalt 482 ft / 147 m 0 ft / 0 m
30 98 ft / 30 m 3,242 ft / 988 m 294.50° 296.27° Asphalt 0 ft / 0 m 0 ft / 0 m

Popular Alternatives